createdAt,value
2019-04-28T00:02:50.841Z,78.25
2019-04-28T00:06:04.520Z,77.95
2019-04-28T00:09:18.359Z,78.16
2019-04-28T00:12:31.943Z,78.05
2019-04-28T00:15:45.773Z,78.05
2019-04-28T00:19:00.919Z,78.59
2019-04-28T00:22:26.931Z,78.79
2019-04-28T00:25:44.889Z,79.01
2019-04-28T00:28:58.359Z,78.74
2019-04-28T00:32:11.963Z,79.27
2019-04-28T00:35:25.829Z,79.02
2019-04-28T00:38:39.311Z,79.08
2019-04-28T00:41:54.477Z,79.09
2019-04-28T00:45:08.498Z,79.12
2019-04-28T00:48:21.987Z,79.17
2019-04-28T00:51:35.479Z,78.96
2019-04-28T00:54:49.475Z,79.10
2019-04-28T00:58:03.163Z,79.33
2019-04-28T01:01:21.355Z,79.51
2019-04-28T01:04:34.925Z,79.84
2019-04-28T01:07:48.747Z,80.08
2019-04-28T01:11:02.319Z,79.46
2019-04-28T01:14:16.088Z,79.29
2019-04-28T01:17:49.603Z,79.62
2019-04-28T01:21:03.559Z,79.80
2019-04-28T01:24:17.288Z,80.06
2019-04-28T01:27:50.829Z,80.10
2019-04-28T01:31:14.492Z,80.76
2019-04-28T01:34:29.992Z,80.70
2019-04-28T01:37:43.497Z,81.01
2019-04-28T01:40:56.990Z,81.20
2019-04-28T01:44:10.587Z,81.04
2019-04-28T01:47:24.312Z,81.46
2019-04-28T01:50:39.893Z,81.44
2019-04-28T01:53:53.577Z,81.29
2019-04-28T01:57:07.156Z,80.79
2019-04-28T02:00:25.375Z,81.43
2019-04-28T02:03:36.461Z,81.42
2019-04-28T02:06:50.164Z,81.54
2019-04-28T02:10:04.449Z,82.12
2019-04-28T02:13:19.882Z,82.29
2019-04-28T02:16:33.596Z,82.51
2019-04-28T02:19:47.365Z,82.71
2019-04-28T02:23:09.888Z,82.89
2019-04-28T02:26:24.004Z,82.68
2019-04-28T02:29:37.730Z,82.69
2019-04-28T02:32:51.941Z,83.03
2019-04-28T02:36:08.688Z,83.46
2019-04-28T02:39:21.333Z,83.50
2019-04-28T02:42:34.947Z,83.80
2019-04-28T02:45:53.485Z,83.96
2019-04-28T02:49:10.236Z,84.17
2019-04-28T02:52:43.609Z,84.13
2019-04-28T02:55:57.099Z,84.46
2019-04-28T02:59:11.072Z,84.50
2019-04-28T03:02:25.272Z,84.33
2019-04-28T03:05:41.243Z,84.83
2019-04-28T03:08:54.375Z,85.05
2019-04-28T03:12:08.060Z,84.86
2019-04-28T03:15:21.554Z,85.31
2019-04-28T03:18:35.947Z,85.17
2019-04-28T03:21:51.070Z,85.15
2019-04-28T03:25:07.063Z,85.32
2019-04-28T03:28:26.998Z,85.25
2019-04-28T03:32:18.261Z,85.22
2019-04-28T03:35:13.587Z,85.51
2019-04-28T03:38:27.257Z,85.37
2019-04-28T03:41:40.943Z,85.58
2019-04-28T03:44:56.723Z,85.66
2019-04-28T03:48:11.442Z,85.81
2019-04-28T03:51:25.034Z,85.38
2019-04-28T03:54:41.059Z,85.59
2019-04-28T03:57:54.018Z,85.77
2019-04-28T04:01:10.435Z,85.54
2019-04-28T04:04:23.495Z,85.67
2019-04-28T04:07:37.235Z,86.01
2019-04-28T04:11:15.115Z,85.89
2019-04-28T04:14:50.901Z,85.88
2019-04-28T04:18:11.082Z,85.62
2019-04-28T04:21:24.699Z,85.60
2019-04-28T04:24:40.319Z,85.83
2019-04-28T04:27:53.578Z,85.66
2019-04-28T04:31:07.308Z,85.75
2019-04-28T04:34:20.806Z,85.49
2019-04-28T04:37:34.397Z,85.06
2019-04-28T04:40:48.095Z,84.41
2019-04-28T04:44:01.698Z,84.46
2019-04-28T04:47:15.454Z,84.47
2019-04-28T04:50:31.460Z,84.69
2019-04-28T04:53:44.362Z,84.13
2019-04-28T04:56:59.923Z,84.08
2019-04-28T05:00:20.981Z,83.97
2019-04-28T05:03:36.499Z,83.62
2019-04-28T05:06:50.004Z,83.52
2019-04-28T05:10:04.501Z,83.48
2019-04-28T05:16:33.183Z,83.14
2019-04-28T05:19:46.677Z,83.06
2019-04-28T05:23:12.600Z,82.34
2019-04-28T05:26:26.097Z,81.88
2019-04-28T05:29:39.934Z,81.57
2019-04-28T05:32:56.248Z,81.88
2019-04-28T05:36:11.687Z,81.16
2019-04-28T05:39:25.286Z,81.13
2019-04-28T05:42:41.977Z,80.65
2019-04-28T05:45:55.475Z,79.59
2019-04-28T05:49:15.465Z,78.97
2019-04-28T05:52:35.128Z,78.53
2019-04-28T05:55:56.408Z,77.72
2019-04-28T05:59:14.259Z,78.16
2019-04-28T06:02:31.858Z,78.02
2019-04-28T06:05:45.635Z,76.97
2019-04-28T06:09:24.250Z,75.53
2019-04-28T06:12:37.757Z,75.77
2019-04-28T06:15:51.364Z,75.00
2019-04-28T06:19:04.955Z,75.08
2019-04-28T06:22:18.563Z,75.71
2019-04-28T06:25:32.065Z,74.76
2019-04-28T06:28:45.776Z,74.70
2019-04-28T06:31:59.800Z,75.23
2019-04-28T06:35:13.393Z,74.41
2019-04-28T06:38:26.896Z,73.72
2019-04-28T06:41:40.651Z,72.81
2019-04-28T06:44:54.243Z,73.73
2019-04-28T06:48:07.863Z,72.74
2019-04-28T06:51:21.405Z,73.47
2019-04-28T06:54:35.006Z,74.34
2019-04-28T06:57:48.777Z,73.77
2019-04-28T07:01:02.497Z,74.23
2019-04-28T07:04:16.348Z,73.56
2019-04-28T07:07:30.092Z,73.34
2019-04-28T07:10:44.047Z,71.43
2019-04-28T07:13:58.458Z,71.46
2019-04-28T07:17:12.633Z,71.74
2019-04-28T07:20:37.476Z,71.75
2019-04-28T07:23:51.881Z,72.06
2019-04-28T07:27:07.221Z,72.12
2019-04-28T07:30:21.626Z,72.22
2019-04-28T07:33:36.335Z,71.24
2019-04-28T07:36:50.500Z,70.83
2019-04-28T07:40:04.683Z,70.62
2019-04-28T07:43:18.420Z,70.19
2019-04-28T07:46:32.055Z,70.78
2019-04-28T07:49:45.965Z,70.00
2019-04-28T07:53:09.179Z,69.89
2019-04-28T07:56:22.681Z,68.85
2019-04-28T07:59:36.183Z,69.19
2019-04-28T08:02:49.675Z,67.33
2019-04-28T08:06:03.368Z,67.98
2019-04-28T08:09:17.487Z,68.17
2019-04-28T08:12:30.988Z,66.90
2019-04-28T08:15:45.134Z,67.54
2019-04-28T08:18:58.743Z,68.17
2019-04-28T08:22:12.351Z,68.57
2019-04-28T08:25:25.838Z,67.92
2019-04-28T08:28:39.449Z,67.62
2019-04-28T08:32:07.092Z,65.84
2019-04-28T08:35:20.728Z,66.08
2019-04-28T08:38:34.225Z,66.73
2019-04-28T08:45:17.695Z,63.90
2019-04-28T08:48:31.287Z,64.14
2019-04-28T08:51:45.254Z,63.38
2019-04-28T08:54:58.999Z,62.05
2019-04-28T08:58:12.736Z,61.13
2019-04-28T09:01:26.656Z,61.10
2019-04-28T09:04:40.451Z,59.05
2019-04-28T09:07:54.119Z,60.65
2019-04-28T09:11:07.928Z,60.98
2019-04-28T09:14:21.960Z,62.06
2019-04-28T09:17:35.751Z,60.77
2019-04-28T09:20:49.795Z,60.71
2019-04-28T09:24:03.903Z,59.53
2019-04-28T09:27:17.950Z,58.07
2019-04-28T09:30:35.442Z,60.54
2019-04-28T09:33:49.191Z,59.62
2019-04-28T09:37:02.948Z,62.33
2019-04-28T09:40:16.947Z,64.53
2019-04-28T09:43:49.557Z,65.53
2019-04-28T09:47:03.542Z,67.62
2019-04-28T09:50:17.449Z,65.23
2019-04-28T09:53:31.713Z,65.47
2019-04-28T09:56:56.039Z,64.54
2019-04-28T10:00:01.620Z,61.73
2019-04-28T10:03:15.296Z,61.04
2019-04-28T10:06:29.514Z,60.67
2019-04-28T10:09:43.301Z,58.83
2019-04-28T10:12:57.290Z,56.23
2019-04-28T10:16:11.531Z,55.49
2019-04-28T10:19:25.893Z,55.42
2019-04-28T10:22:40.245Z,52.47
2019-04-28T10:25:54.115Z,53.93
2019-04-28T10:29:07.808Z,53.64
2019-04-28T10:32:21.536Z,53.11
2019-04-28T10:35:35.458Z,52.81
2019-04-28T10:38:51.081Z,49.48
2019-04-28T10:42:04.836Z,50.48
2019-04-28T10:45:21.738Z,50.91
2019-04-28T10:48:36.113Z,48.64
2019-04-28T10:51:59.130Z,52.29
2019-04-28T10:55:06.585Z,53.87
2019-04-28T10:58:21.515Z,56.93
2019-04-28T11:01:35.228Z,56.24
2019-04-28T11:05:12.122Z,57.79
2019-04-28T11:08:49.200Z,56.10
2019-04-28T11:12:04.880Z,59.29
2019-04-28T11:15:32.956Z,57.15
2019-04-28T11:18:46.672Z,58.63
2019-04-28T11:25:34.794Z,62.24
2019-04-28T11:28:48.865Z,64.18
2019-04-28T11:32:03.578Z,60.16
2019-04-28T11:35:27.167Z,62.99
2019-04-28T11:38:45.827Z,60.55
2019-04-28T11:42:00.295Z,60.80
2019-04-28T11:45:14.674Z,61.01
2019-04-28T11:48:28.709Z,59.06
2019-04-28T11:51:43.164Z,59.22
2019-04-28T11:54:58.181Z,56.62
2019-04-28T11:58:11.980Z,57.52
2019-04-28T12:01:25.488Z,57.78
2019-04-28T12:04:39.443Z,57.44
2019-04-28T12:07:53.617Z,57.68
2019-04-28T12:11:28.420Z,57.29
2019-04-28T12:16:59.482Z,55.84
2019-04-28T12:20:21.855Z,55.51
2019-04-28T12:23:35.568Z,53.43
2019-04-28T12:26:51.738Z,53.71
2019-04-28T12:30:05.777Z,56.30
2019-04-28T12:33:19.360Z,57.10
2019-04-28T12:36:32.996Z,58.20
2019-04-28T12:39:46.873Z,57.41
2019-04-28T12:43:00.378Z,57.56
2019-04-28T12:46:14.043Z,57.89
2019-04-28T12:49:36.876Z,58.78
2019-04-28T12:52:50.499Z,60.09
2019-04-28T12:56:04.277Z,60.42
2019-04-28T12:59:23.237Z,60.90
2019-04-28T13:03:16.398Z,62.23
2019-04-28T13:06:30.137Z,64.94
2019-04-28T13:09:44.058Z,67.13
2019-04-28T13:12:57.678Z,70.26
2019-04-28T13:16:11.938Z,69.39
2019-04-28T13:19:25.918Z,72.26
2019-04-28T13:22:39.596Z,71.51
2019-04-28T13:25:53.702Z,72.57
2019-04-28T13:29:07.279Z,71.39
2019-04-28T13:32:21.115Z,71.94
2019-04-28T13:35:35.739Z,72.23
2019-04-28T13:38:49.251Z,73.43
2019-04-28T13:42:03.502Z,74.19
2019-04-28T13:45:19.909Z,75.19
2019-04-28T13:48:33.748Z,72.87
2019-04-28T13:51:47.454Z,73.88
2019-04-28T13:55:24.530Z,71.64
2019-04-28T13:58:40.626Z,71.53
2019-04-28T14:02:01.943Z,71.36
2019-04-28T14:05:30.323Z,71.92
2019-04-28T14:08:44.209Z,71.40
2019-04-28T14:11:57.966Z,70.73
2019-04-28T14:15:11.640Z,69.15
2019-04-28T14:18:25.243Z,68.01
2019-04-28T14:21:38.939Z,65.30
2019-04-28T14:24:52.566Z,65.51
2019-04-28T14:28:06.289Z,64.66
2019-04-28T14:31:20.068Z,65.93
2019-04-28T14:34:33.624Z,62.55
2019-04-28T14:37:47.383Z,63.89
2019-04-28T14:41:01.140Z,63.58
2019-04-28T14:44:17.579Z,61.75
2019-04-28T14:47:30.238Z,62.48
2019-04-28T14:50:44.275Z,63.56
2019-04-28T14:53:58.027Z,62.14
2019-04-28T14:57:11.857Z,60.26
2019-04-28T15:00:32.068Z,63.61
2019-04-28T15:03:48.413Z,62.08
2019-04-28T15:07:07.836Z,62.64
2019-04-28T15:10:33.943Z,63.42
2019-04-28T15:13:47.698Z,63.32
2019-04-28T15:17:01.364Z,60.33
2019-04-28T15:20:15.369Z,59.24
2019-04-28T15:23:28.857Z,56.74
2019-04-28T15:26:42.711Z,56.09
2019-04-28T15:29:56.190Z,56.30
2019-04-28T15:33:09.856Z,56.08
2019-04-28T15:36:23.350Z,57.27
2019-04-28T15:39:36.840Z,58.67
2019-04-28T15:42:50.599Z,60.71
2019-04-28T15:46:04.304Z,64.01
2019-04-28T15:49:17.821Z,64.39
2019-04-28T15:52:31.665Z,61.30
2019-04-28T15:55:55.370Z,60.07
2019-04-28T15:59:09.881Z,59.67
2019-04-28T16:02:24.010Z,57.99
2019-04-28T16:05:37.673Z,58.99
2019-04-28T16:08:51.517Z,60.95
2019-04-28T16:12:05.400Z,57.24
2019-04-28T16:15:19.399Z,56.09
2019-04-28T16:18:33.061Z,53.37
2019-04-28T16:21:46.924Z,53.32
2019-04-28T16:25:00.996Z,50.12
2019-04-28T16:28:15.245Z,51.62
2019-04-28T16:31:29.045Z,50.65
2019-04-28T16:34:43.014Z,50.20
2019-04-28T16:37:57.222Z,50.51
2019-04-28T16:41:11.346Z,49.76
2019-04-28T16:44:25.808Z,50.19
2019-04-28T16:47:39.589Z,46.09
2019-04-28T16:50:53.323Z,44.26
2019-04-28T16:54:07.180Z,41.79
2019-04-28T16:57:37.796Z,40.95
2019-04-28T17:01:29.491Z,37.42
2019-04-28T17:04:43.367Z,35.39
2019-04-28T17:07:57.828Z,33.22
2019-04-28T17:11:12.061Z,32.13
2019-04-28T17:14:26.042Z,31.12
2019-04-28T17:17:40.435Z,33.57
2019-04-28T17:20:55.175Z,37.67
2019-04-28T17:24:09.202Z,41.85
2019-04-28T17:27:23.731Z,45.48
2019-04-28T17:30:37.891Z,48.65
2019-04-28T17:33:52.006Z,46.38
2019-04-28T17:37:06.596Z,47.44
2019-04-28T17:40:22.321Z,49.92
2019-04-28T17:43:37.032Z,52.36
2019-04-28T17:46:51.109Z,54.27
2019-04-28T17:50:06.208Z,56.70
2019-04-28T17:53:20.310Z,61.13
2019-04-28T17:56:33.922Z,63.94
2019-04-28T17:59:49.419Z,65.79
2019-04-28T18:03:14.691Z,68.27
2019-04-28T18:06:28.983Z,68.75
2019-04-28T18:09:42.574Z,70.11
2019-04-28T18:13:00.798Z,71.00
2019-04-28T18:16:29.816Z,71.60
2019-04-28T18:19:43.419Z,73.57
2019-04-28T18:22:57.153Z,73.77
2019-04-28T18:26:10.661Z,74.46
2019-04-28T18:29:24.610Z,75.15
2019-04-28T18:33:03.617Z,75.71
2019-04-28T18:36:24.153Z,76.91
2019-04-28T18:39:56.304Z,76.87
2019-04-28T18:43:19.833Z,77.30
2019-04-28T18:46:33.604Z,77.92
2019-04-28T18:49:47.128Z,78.51
2019-04-28T18:53:00.709Z,79.15
2019-04-28T18:56:14.459Z,79.90
2019-04-28T18:59:27.952Z,80.55
2019-04-28T19:02:44.377Z,80.73
2019-04-28T19:05:57.972Z,80.27
2019-04-28T19:09:27.859Z,80.06
2019-04-28T19:13:01.359Z,80.71
2019-04-28T19:16:33.708Z,81.32
2019-04-28T19:19:47.324Z,81.73
2019-04-28T19:23:00.927Z,80.92
2019-04-28T19:26:14.690Z,80.94
2019-04-28T19:29:28.183Z,80.86
2019-04-28T19:32:41.668Z,82.24
2019-04-28T19:35:55.727Z,81.91
2019-04-28T19:39:09.230Z,82.17
2019-04-28T19:42:22.729Z,82.01
2019-04-28T19:45:38.236Z,81.83
2019-04-28T19:48:52.033Z,82.40
2019-04-28T19:52:05.730Z,82.07
2019-04-28T19:55:23.512Z,82.74
2019-04-28T19:58:41.422Z,82.79
2019-04-28T20:01:55.128Z,83.33
2019-04-28T20:05:09.052Z,83.41
2019-04-28T20:08:22.731Z,84.18
2019-04-28T20:11:36.320Z,84.18
2019-04-28T20:14:49.846Z,84.25
2019-04-28T20:18:03.533Z,84.35
2019-04-28T20:21:17.023Z,84.29
2019-04-28T20:24:30.525Z,84.25
2019-04-28T20:27:44.126Z,83.91
2019-04-28T20:30:57.611Z,84.12
2019-04-28T20:34:11.415Z,83.98
2019-04-28T20:37:34.885Z,84.35
2019-04-28T20:40:57.600Z,84.66
2019-04-28T20:44:11.075Z,85.10
2019-04-28T20:47:24.557Z,84.74
2019-04-28T20:50:38.148Z,85.08
2019-04-28T20:53:51.627Z,84.91
2019-04-28T20:57:05.131Z,84.82
2019-04-28T21:00:19.061Z,85.41
2019-04-28T21:03:33.043Z,85.69
2019-04-28T21:06:46.566Z,86.19
2019-04-28T21:09:59.995Z,85.91
2019-04-28T21:16:30.634Z,85.77
2019-04-28T21:19:44.224Z,86.09
2019-04-28T21:22:57.737Z,86.18
2019-04-28T21:26:11.247Z,86.20
2019-04-28T21:29:24.726Z,86.34
2019-04-28T21:32:38.894Z,86.09
2019-04-28T21:35:52.388Z,85.63
2019-04-28T21:39:07.728Z,85.80
2019-04-28T21:42:23.786Z,85.71
2019-04-28T21:46:01.908Z,86.22
2019-04-28T21:49:29.570Z,86.16
2019-04-28T21:52:43.131Z,85.79
2019-04-28T21:55:56.719Z,85.64
2019-04-28T21:59:10.529Z,85.66
2019-04-28T22:02:24.015Z,86.06
2019-04-28T22:05:37.585Z,85.66
2019-04-28T22:08:51.393Z,86.12
2019-04-28T22:12:04.988Z,85.88
2019-04-28T22:15:18.728Z,85.88
2019-04-28T22:18:32.466Z,86.24
2019-04-28T22:21:46.070Z,86.41
2019-04-28T22:25:09.326Z,86.42
2019-04-28T22:28:22.807Z,86.05
2019-04-28T22:31:36.446Z,85.78
2019-04-28T22:34:49.900Z,85.77
2019-04-28T22:38:03.610Z,85.90
2019-04-28T22:41:17.087Z,86.50
2019-04-28T22:44:31.035Z,86.66
2019-04-28T22:47:44.599Z,86.57
2019-04-28T22:50:58.188Z,86.61
2019-04-28T22:54:24.148Z,86.62
2019-04-28T22:57:47.808Z,86.27
2019-04-28T23:01:07.091Z,86.51
2019-04-28T23:04:33.774Z,86.52
2019-04-28T23:07:47.287Z,86.68
2019-04-28T23:11:00.949Z,86.64
2019-04-28T23:14:14.906Z,86.75
2019-04-28T23:17:28.597Z,86.82
2019-04-28T23:20:44.079Z,86.72
2019-04-28T23:23:57.792Z,86.50
2019-04-28T23:27:11.367Z,86.15
2019-04-28T23:30:35.934Z,86.45
2019-04-28T23:33:49.836Z,86.82
2019-04-28T23:37:03.523Z,87.02
2019-04-28T23:40:17.200Z,86.92
2019-04-28T23:43:30.683Z,87.09
2019-04-28T23:46:57.541Z,86.66
2019-04-28T23:50:13.144Z,86.82
2019-04-28T23:53:44.772Z,86.73
2019-04-28T23:56:58.472Z,86.56
